createdAt,value
2022-10-17T00:01:57.767Z,16.74
2022-10-17T00:04:24.231Z,16.73
2022-10-17T00:06:50.642Z,16.69
2022-10-17T00:09:17.088Z,16.66
2022-10-17T00:11:43.497Z,16.65
2022-10-17T00:14:10.000Z,16.62
2022-10-17T00:16:37.481Z,16.58
2022-10-17T00:19:06.762Z,16.58
2022-10-17T00:21:33.695Z,16.57
2022-10-17T00:24:01.118Z,16.55
2022-10-17T00:26:30.802Z,16.54
2022-10-17T00:28:57.263Z,16.52
2022-10-17T00:31:24.823Z,16.52
2022-10-17T00:33:52.253Z,16.50
2022-10-17T00:36:21.213Z,16.51
2022-10-17T00:38:51.294Z,16.50
2022-10-17T00:41:20.103Z,16.48
2022-10-17T00:44:00.277Z,16.48
2022-10-17T00:46:32.256Z,16.43
2022-10-17T00:49:02.573Z,16.41
2022-10-17T00:51:37.007Z,16.36
2022-10-17T00:54:04.187Z,16.30
2022-10-17T00:56:31.109Z,16.26
2022-10-17T00:58:57.685Z,16.22
2022-10-17T01:01:24.268Z,16.20
2022-10-17T01:03:50.801Z,16.18
2022-10-17T01:06:17.457Z,16.14
2022-10-17T01:08:44.114Z,16.14
2022-10-17T01:11:25.259Z,16.13
2022-10-17T01:13:59.564Z,16.11
2022-10-17T01:16:25.935Z,16.11
2022-10-17T01:19:11.564Z,16.13
2022-10-17T01:21:55.194Z,16.11
2022-10-17T01:24:21.537Z,16.13
2022-10-17T01:27:11.169Z,16.16
2022-10-17T01:29:43.614Z,16.16
2022-10-17T01:32:29.994Z,16.17
2022-10-17T01:35:03.685Z,16.19
2022-10-17T01:37:37.351Z,16.18
2022-10-17T01:40:44.350Z,16.17
2022-10-17T01:43:20.965Z,16.17
2022-10-17T01:45:55.281Z,16.16
2022-10-17T01:48:30.639Z,16.15
2022-10-17T01:51:03.274Z,16.16
2022-10-17T01:53:36.903Z,16.14
2022-10-17T01:56:07.764Z,16.15
2022-10-17T01:58:43.860Z,16.13
2022-10-17T02:01:12.503Z,16.12
2022-10-17T02:03:42.923Z,16.12
2022-10-17T02:06:09.646Z,16.10
2022-10-17T02:08:47.780Z,16.05
2022-10-17T02:11:18.794Z,16.02
2022-10-17T02:14:06.877Z,15.98
2022-10-17T02:16:51.937Z,15.96
2022-10-17T02:19:26.472Z,15.92
2022-10-17T02:22:04.271Z,15.93
2022-10-17T02:24:47.118Z,15.93
2022-10-17T02:27:20.672Z,15.92
2022-10-17T02:29:53.958Z,15.93
2022-10-17T02:32:49.481Z,15.93
2022-10-17T02:35:20.313Z,15.90
2022-10-17T02:37:47.538Z,15.90
2022-10-17T02:40:17.604Z,15.90
2022-10-17T02:42:45.975Z,15.90
2022-10-17T02:45:14.155Z,15.89
2022-10-17T02:47:56.898Z,15.88
2022-10-17T02:50:47.767Z,15.88
2022-10-17T02:53:19.308Z,15.86
2022-10-17T02:55:53.791Z,15.87
2022-10-17T02:58:30.831Z,15.87
2022-10-17T03:00:58.391Z,15.89
2022-10-17T03:03:27.706Z,15.92
2022-10-17T03:05:54.576Z,15.92
2022-10-17T03:08:21.805Z,15.94
2022-10-17T03:10:48.429Z,15.98
2022-10-17T03:13:15.857Z,16.02
2022-10-17T03:15:42.497Z,16.05
2022-10-17T03:18:09.062Z,16.06
2022-10-17T03:20:35.909Z,16.07
2022-10-17T03:23:02.336Z,16.10
2022-10-17T03:25:28.851Z,16.12
2022-10-17T03:27:57.506Z,16.13
2022-10-17T03:30:23.901Z,16.14
2022-10-17T03:32:50.252Z,16.15
2022-10-17T03:35:16.685Z,16.18
2022-10-17T03:37:43.098Z,16.20
2022-10-17T03:40:10.211Z,16.23
2022-10-17T03:42:37.505Z,16.25
2022-10-17T03:45:04.169Z,16.26
2022-10-17T03:47:30.855Z,16.26
2022-10-17T03:49:57.523Z,16.24
2022-10-17T03:52:23.969Z,16.21
2022-10-17T03:54:51.216Z,16.18
2022-10-17T03:57:19.230Z,16.18
2022-10-17T03:59:45.687Z,16.14
2022-10-17T04:02:12.082Z,16.15
2022-10-17T04:04:38.540Z,16.13
2022-10-17T04:07:04.933Z,16.13
2022-10-17T04:09:31.309Z,16.13
2022-10-17T04:11:57.786Z,16.13
2022-10-17T04:14:24.221Z,16.12
2022-10-17T04:16:50.662Z,16.10
2022-10-17T04:19:17.109Z,16.08
2022-10-17T04:21:43.547Z,16.08
2022-10-17T04:24:11.895Z,16.11
2022-10-17T04:26:38.407Z,16.09
2022-10-17T04:29:04.833Z,16.08
2022-10-17T04:31:31.552Z,16.11
2022-10-17T04:33:57.967Z,16.12
2022-10-17T04:36:24.844Z,16.08
2022-10-17T04:38:51.245Z,16.09
2022-10-17T04:41:18.891Z,16.05
2022-10-17T04:43:48.638Z,16.05
2022-10-17T04:46:17.645Z,16.05
2022-10-17T04:48:44.036Z,15.99
2022-10-17T04:51:16.145Z,15.98
2022-10-17T04:53:43.964Z,15.96
2022-10-17T04:56:16.877Z,15.95
2022-10-17T04:58:44.484Z,15.92
2022-10-17T05:01:13.501Z,15.89
2022-10-17T05:03:40.080Z,15.86
2022-10-17T05:06:12.178Z,15.85
2022-10-17T05:08:39.169Z,15.83
2022-10-17T05:11:14.854Z,15.83
2022-10-17T05:13:41.240Z,15.82
2022-10-17T05:16:07.619Z,15.82
2022-10-17T05:18:33.988Z,15.84
2022-10-17T05:21:00.383Z,15.84
2022-10-17T05:23:29.131Z,15.85
2022-10-17T05:25:55.797Z,15.86
2022-10-17T05:28:23.113Z,15.86
2022-10-17T05:30:50.009Z,15.87
2022-10-17T05:33:16.461Z,15.85
2022-10-17T05:35:42.845Z,15.85
2022-10-17T05:38:09.233Z,15.84
2022-10-17T05:40:35.657Z,15.83
2022-10-17T05:43:02.273Z,15.83
2022-10-17T05:45:28.677Z,15.82
2022-10-17T05:47:55.049Z,15.84
2022-10-17T05:50:22.059Z,15.84
2022-10-17T05:52:53.627Z,15.84
2022-10-17T05:55:20.005Z,15.82
2022-10-17T05:57:46.427Z,15.81
2022-10-17T06:00:13.549Z,15.81
2022-10-17T06:02:40.184Z,15.80
2022-10-17T06:05:06.738Z,15.76
2022-10-17T06:07:33.146Z,15.74
2022-10-17T06:09:59.546Z,15.71
2022-10-17T06:12:26.048Z,15.71
2022-10-17T06:14:52.503Z,15.71
2022-10-17T06:17:18.939Z,15.69
2022-10-17T06:19:45.421Z,15.69
2022-10-17T06:22:11.926Z,15.67
2022-10-17T06:24:38.428Z,15.68
2022-10-17T06:27:09.388Z,15.69
2022-10-17T06:29:38.427Z,15.72
2022-10-17T06:32:05.210Z,15.77
2022-10-17T06:34:31.578Z,15.82
2022-10-17T06:36:58.054Z,15.87
2022-10-17T06:39:26.826Z,15.92
2022-10-17T06:41:53.242Z,15.97
2022-10-17T06:44:19.734Z,16.01
2022-10-17T06:46:46.173Z,16.07
2022-10-17T06:49:12.580Z,16.13
2022-10-17T06:51:39.072Z,16.16
2022-10-17T06:54:05.439Z,16.21
2022-10-17T06:56:31.867Z,16.27
2022-10-17T06:58:58.284Z,16.33
2022-10-17T07:01:24.680Z,16.40
2022-10-17T07:03:52.241Z,16.46
2022-10-17T07:06:19.145Z,16.52
2022-10-17T07:08:46.488Z,16.60
2022-10-17T07:11:15.497Z,16.67
2022-10-17T07:13:42.335Z,16.73
2022-10-17T07:16:09.239Z,16.80
2022-10-17T07:18:35.691Z,16.88
2022-10-17T07:21:02.403Z,16.97
2022-10-17T07:23:28.885Z,17.06
2022-10-17T07:26:02.295Z,17.16
2022-10-17T07:28:29.080Z,17.26
2022-10-17T07:30:55.548Z,17.38
2022-10-17T07:33:22.001Z,17.46
2022-10-17T07:35:48.452Z,17.53
2022-10-17T07:38:14.847Z,17.60
2022-10-17T07:40:41.264Z,17.67
2022-10-17T07:43:07.630Z,17.73
2022-10-17T07:45:34.051Z,17.77
2022-10-17T07:48:00.462Z,17.88
2022-10-17T07:50:26.876Z,17.94
2022-10-17T07:52:53.239Z,18.04
2022-10-17T07:55:19.640Z,18.10
2022-10-17T07:57:46.054Z,18.17
2022-10-17T08:00:12.737Z,18.20
2022-10-17T08:02:39.585Z,18.25
2022-10-17T08:05:06.372Z,18.33
2022-10-17T08:07:32.843Z,18.37
2022-10-17T08:09:59.334Z,18.44
2022-10-17T08:12:26.129Z,18.50
2022-10-17T08:14:52.570Z,18.51
2022-10-17T08:17:18.983Z,18.61
2022-10-17T08:19:45.395Z,18.67
2022-10-17T08:22:11.823Z,18.75
2022-10-17T08:24:38.232Z,18.86
2022-10-17T08:27:11.355Z,18.98
2022-10-17T08:29:38.965Z,19.05
2022-10-17T08:32:08.990Z,19.09
2022-10-17T08:34:36.299Z,19.20
2022-10-17T08:37:02.805Z,19.29
2022-10-17T08:39:29.251Z,19.40
2022-10-17T08:42:08.053Z,19.45
2022-10-17T08:44:51.249Z,19.49
2022-10-17T08:47:28.055Z,19.57
2022-10-17T08:50:01.102Z,19.62
2022-10-17T08:52:39.735Z,19.57
2022-10-17T08:55:39.975Z,19.65
2022-10-17T08:58:22.474Z,19.72
2022-10-17T09:01:12.729Z,19.74
2022-10-17T09:04:06.622Z,19.78
2022-10-17T09:06:32.912Z,19.84
2022-10-17T09:09:11.904Z,19.88
2022-10-17T09:11:44.860Z,19.93
2022-10-17T09:14:20.337Z,19.98
2022-10-17T09:17:32.482Z,20.07
2022-10-17T09:20:10.227Z,20.14
2022-10-17T09:23:05.780Z,20.35
2022-10-17T09:25:41.091Z,20.52
2022-10-17T09:28:10.489Z,20.63
2022-10-17T09:30:47.395Z,20.81
2022-10-17T09:33:28.374Z,20.97
2022-10-17T09:36:10.671Z,21.08
2022-10-17T09:38:41.974Z,21.24
2022-10-17T09:44:34.513Z,21.63
2022-10-17T09:47:19.557Z,21.98
2022-10-17T09:49:47.805Z,21.93
2022-10-17T09:52:24.195Z,21.86
2022-10-17T09:54:54.117Z,21.85
2022-10-17T09:57:21.986Z,21.84
2022-10-17T10:00:04.439Z,21.80
2022-10-17T10:02:33.517Z,21.83
2022-10-17T10:05:16.816Z,21.83
2022-10-17T10:07:46.301Z,21.85
2022-10-17T10:10:27.982Z,21.84
2022-10-17T10:13:13.130Z,21.83
2022-10-17T10:15:50.749Z,21.87
2022-10-17T10:18:26.249Z,21.84
2022-10-17T10:21:06.685Z,21.90
2022-10-17T10:23:34.120Z,22.02
2022-10-17T10:26:04.137Z,22.11
2022-10-17T10:28:35.990Z,22.19
2022-10-17T10:31:05.380Z,22.32
2022-10-17T10:33:36.773Z,22.46
2022-10-17T10:36:07.755Z,22.72
2022-10-17T10:38:35.076Z,22.93
2022-10-17T10:41:10.186Z,23.13
2022-10-17T10:43:39.427Z,23.22
2022-10-17T10:46:18.033Z,23.23
2022-10-17T10:48:52.020Z,23.38
2022-10-17T10:51:24.651Z,23.62
2022-10-17T10:53:56.971Z,23.94
2022-10-17T10:56:29.319Z,24.05
2022-10-17T10:59:02.850Z,24.00
2022-10-17T11:01:35.529Z,23.96
2022-10-17T11:04:19.630Z,23.93
2022-10-17T11:06:47.468Z,23.91
2022-10-17T11:09:17.595Z,23.85
2022-10-17T11:11:52.605Z,23.74
2022-10-17T11:14:34.853Z,23.72
2022-10-17T11:17:10.177Z,23.68
2022-10-17T11:19:47.624Z,23.67
2022-10-17T11:22:26.626Z,23.72
2022-10-17T11:25:04.037Z,23.77
2022-10-17T11:27:31.215Z,23.83
2022-10-17T11:29:58.488Z,23.92
2022-10-17T11:32:31.499Z,24.07
2022-10-17T11:35:07.351Z,24.18
2022-10-17T11:37:40.933Z,24.27
2022-10-17T11:40:24.350Z,24.35
2022-10-17T11:43:06.794Z,24.57
2022-10-17T11:45:42.684Z,25.01
2022-10-17T11:48:20.840Z,25.38
2022-10-17T11:53:50.937Z,25.79
2022-10-17T11:56:26.758Z,25.77
2022-10-17T11:59:14.756Z,25.64
2022-10-17T12:01:50.935Z,25.53
2022-10-17T12:04:24.677Z,25.44
2022-10-17T12:07:34.366Z,25.18
2022-10-17T12:10:32.090Z,25.09
2022-10-17T12:13:33.311Z,25.02
2022-10-17T12:16:18.613Z,24.89
2022-10-17T12:18:46.688Z,24.80
2022-10-17T12:21:13.116Z,24.77
2022-10-17T12:23:41.169Z,24.69
2022-10-17T12:26:10.384Z,24.59
2022-10-17T12:28:39.913Z,24.53
2022-10-17T12:31:29.620Z,24.43
2022-10-17T12:34:02.027Z,24.35
2022-10-17T12:36:28.460Z,24.26
2022-10-17T12:39:01.077Z,24.22
2022-10-17T12:41:39.806Z,24.10
2022-10-17T12:44:12.864Z,24.05
2022-10-17T12:46:55.702Z,23.99
2022-10-17T12:49:39.602Z,23.97
2022-10-17T12:52:53.883Z,23.90
2022-10-17T12:55:24.778Z,23.81
2022-10-17T12:58:03.373Z,23.80
2022-10-17T13:01:05.189Z,23.73
2022-10-17T13:03:46.685Z,23.64
2022-10-17T13:06:29.320Z,23.63
2022-10-17T13:09:05.577Z,23.62
2022-10-17T13:11:34.858Z,23.62
2022-10-17T13:14:08.981Z,23.61
2022-10-17T13:16:40.735Z,23.58
2022-10-17T13:19:16.607Z,23.49
2022-10-17T13:22:05.333Z,23.46
2022-10-17T13:24:38.511Z,23.43
2022-10-17T13:27:26.376Z,23.41
2022-10-17T13:29:52.917Z,23.41
2022-10-17T13:32:19.393Z,23.43
2022-10-17T13:34:45.805Z,23.40
2022-10-17T13:37:15.505Z,23.32
2022-10-17T13:39:54.769Z,23.33
2022-10-17T13:42:28.726Z,23.32
2022-10-17T13:44:56.642Z,23.26
2022-10-17T13:47:30.465Z,23.27
2022-10-17T13:49:58.149Z,23.26
2022-10-17T13:52:30.154Z,23.29
2022-10-17T13:55:08.153Z,23.20
2022-10-17T13:57:34.881Z,23.21
2022-10-17T14:00:12.412Z,23.25
2022-10-17T14:02:41.077Z,23.26
2022-10-17T14:05:18.963Z,23.26
2022-10-17T14:08:11.206Z,23.19
2022-10-17T14:10:40.514Z,23.18
2022-10-17T14:13:08.222Z,23.22
2022-10-17T14:15:36.263Z,23.19
2022-10-17T14:18:07.779Z,23.20
2022-10-17T14:23:36.952Z,23.19
2022-10-17T14:26:19.756Z,23.19
2022-10-17T14:28:49.643Z,23.11
2022-10-17T14:31:21.145Z,23.12
2022-10-17T14:33:50.871Z,23.13
2022-10-17T14:36:18.981Z,23.11
2022-10-17T14:38:49.632Z,23.11
2022-10-17T14:41:41.892Z,23.11
2022-10-17T14:44:19.181Z,23.09
2022-10-17T14:46:50.686Z,23.07
2022-10-17T14:49:24.784Z,23.04
2022-10-17T14:52:18.286Z,23.00
2022-10-17T14:54:47.130Z,22.96
2022-10-17T14:57:19.579Z,22.97
2022-10-17T14:59:54.680Z,22.98
2022-10-17T15:02:26.872Z,22.99
2022-10-17T15:04:53.494Z,22.99
2022-10-17T15:07:21.230Z,22.98
2022-10-17T15:09:50.684Z,22.98
2022-10-17T15:12:19.810Z,22.98
2022-10-17T15:14:48.000Z,22.94
2022-10-17T15:17:20.837Z,22.93
2022-10-17T15:19:48.231Z,22.94
2022-10-17T15:22:16.154Z,22.93
2022-10-17T15:24:42.940Z,22.93
2022-10-17T15:27:16.722Z,22.93
2022-10-17T15:29:43.290Z,22.92
2022-10-17T15:32:09.689Z,22.91
2022-10-17T15:34:36.218Z,22.90
2022-10-17T15:37:04.745Z,22.88
2022-10-17T15:39:31.238Z,22.85
2022-10-17T15:41:58.754Z,22.80
2022-10-17T15:44:25.349Z,22.79
2022-10-17T15:46:51.784Z,22.76
2022-10-17T15:49:19.859Z,22.69
2022-10-17T15:51:47.207Z,22.61
2022-10-17T15:54:15.846Z,22.51
2022-10-17T15:56:43.112Z,22.41
2022-10-17T15:59:16.706Z,22.30
2022-10-17T16:01:43.178Z,22.18
2022-10-17T16:04:13.101Z,22.06
2022-10-17T16:06:39.579Z,21.95
2022-10-17T16:09:06.069Z,21.84
2022-10-17T16:11:38.111Z,21.73
2022-10-17T16:14:07.165Z,21.64
2022-10-17T16:16:33.664Z,21.55
2022-10-17T16:19:01.306Z,21.47
2022-10-17T16:24:02.402Z,21.31
2022-10-17T16:26:29.488Z,21.24
2022-10-17T16:28:57.793Z,21.14
2022-10-17T16:31:31.031Z,21.05
2022-10-17T16:33:59.479Z,20.97
2022-10-17T16:36:26.136Z,20.91
2022-10-17T16:38:54.110Z,20.85
2022-10-17T16:41:30.258Z,20.81
2022-10-17T16:43:59.495Z,20.72
2022-10-17T16:46:27.488Z,20.67
2022-10-17T16:48:54.633Z,20.61
2022-10-17T16:51:21.543Z,20.55
2022-10-17T16:53:50.571Z,20.51
2022-10-17T16:56:19.451Z,20.47
2022-10-17T16:58:46.427Z,20.42
2022-10-17T17:01:18.968Z,20.37
2022-10-17T17:03:47.358Z,20.33
2022-10-17T17:06:23.057Z,20.31
2022-10-17T17:08:49.799Z,20.27
2022-10-17T17:11:18.437Z,20.25
2022-10-17T17:13:45.125Z,20.21
2022-10-17T17:16:17.994Z,20.18
2022-10-17T17:18:46.002Z,20.15
2022-10-17T17:21:13.902Z,20.11
2022-10-17T17:23:41.839Z,20.10
2022-10-17T17:26:14.525Z,20.07
2022-10-17T17:28:42.275Z,20.03
2022-10-17T17:31:10.972Z,20.00
2022-10-17T17:33:39.355Z,19.98
2022-10-17T17:36:06.653Z,19.95
2022-10-17T17:38:35.816Z,19.93
2022-10-17T17:41:03.685Z,19.91
2022-10-17T17:43:30.376Z,19.91
2022-10-17T17:45:56.843Z,19.89
2022-10-17T17:48:23.242Z,19.89
2022-10-17T17:50:49.638Z,19.85
2022-10-17T17:53:17.149Z,19.83
2022-10-17T17:55:43.612Z,19.84
2022-10-17T17:58:11.246Z,19.82
2022-10-17T18:00:38.561Z,19.82
2022-10-17T18:03:05.049Z,19.82
2022-10-17T18:05:31.584Z,19.82
2022-10-17T18:07:57.992Z,19.82
2022-10-17T18:10:24.496Z,19.82
2022-10-17T18:12:50.910Z,19.81
2022-10-17T18:15:17.537Z,19.81
2022-10-17T18:17:43.962Z,19.80
2022-10-17T18:20:10.758Z,19.79
2022-10-17T18:22:37.158Z,19.78
2022-10-17T18:25:03.750Z,19.76
2022-10-17T18:27:30.131Z,19.73
2022-10-17T18:29:56.482Z,19.70
2022-10-17T18:32:22.901Z,19.70
2022-10-17T18:34:49.328Z,19.66
2022-10-17T18:37:15.730Z,19.63
2022-10-17T18:39:42.110Z,19.61
2022-10-17T18:42:08.787Z,19.60
2022-10-17T18:44:35.194Z,19.59
2022-10-17T18:47:04.148Z,19.56
2022-10-17T18:49:31.233Z,19.55
2022-10-17T18:51:59.433Z,19.53
2022-10-17T18:54:25.876Z,19.52
2022-10-17T18:56:54.362Z,19.49
2022-10-17T18:59:21.125Z,19.47
2022-10-17T19:01:48.055Z,19.44
2022-10-17T19:04:14.756Z,19.39
2022-10-17T19:06:41.907Z,19.35
2022-10-17T19:09:10.547Z,19.29
2022-10-17T19:11:38.181Z,19.23
2022-10-17T19:14:12.641Z,19.20
2022-10-17T19:16:41.916Z,19.16
2022-10-17T19:19:14.596Z,19.14
2022-10-17T19:21:41.404Z,19.11
2022-10-17T19:24:12.636Z,19.09
2022-10-17T19:26:39.756Z,19.04
2022-10-17T19:29:06.539Z,19.00
2022-10-17T19:31:35.049Z,18.98
2022-10-17T19:34:01.530Z,18.95
2022-10-17T19:36:33.249Z,18.94
2022-10-17T19:39:03.075Z,18.91
2022-10-17T19:41:29.625Z,18.89
2022-10-17T19:43:56.136Z,18.85
2022-10-17T19:46:25.631Z,18.83
2022-10-17T19:48:52.666Z,18.81
2022-10-17T19:51:24.309Z,18.79
2022-10-17T19:53:52.128Z,18.78
2022-10-17T19:56:22.833Z,18.79
2022-10-17T19:58:50.484Z,18.79
2022-10-17T20:01:20.340Z,18.79
2022-10-17T20:03:47.376Z,18.79
2022-10-17T20:06:14.721Z,18.80
2022-10-17T20:08:41.878Z,18.79
2022-10-17T20:11:11.889Z,18.78
2022-10-17T20:13:38.697Z,18.76
2022-10-17T20:16:06.607Z,18.72
2022-10-17T20:18:33.525Z,18.69
2022-10-17T20:21:06.396Z,18.66
2022-10-17T20:23:34.093Z,18.63
2022-10-17T20:26:25.445Z,18.59
2022-10-17T20:28:52.919Z,18.57
2022-10-17T20:31:19.831Z,18.54
2022-10-17T20:33:46.260Z,18.53
2022-10-17T20:36:14.431Z,18.49
2022-10-17T20:38:40.867Z,18.48
2022-10-17T20:41:09.350Z,18.47
2022-10-17T20:43:36.729Z,18.46
2022-10-17T20:46:22.036Z,18.47
2022-10-17T20:48:53.937Z,18.45
2022-10-17T20:51:21.117Z,18.40
2022-10-17T20:53:48.031Z,18.43
2022-10-17T20:56:20.594Z,18.43
2022-10-17T20:58:58.830Z,18.40
2022-10-17T21:01:26.169Z,18.39
2022-10-17T21:03:53.567Z,18.40
2022-10-17T21:06:20.589Z,18.40
2022-10-17T21:08:47.709Z,18.39
2022-10-17T21:11:15.880Z,18.39
2022-10-17T21:13:42.663Z,18.37
2022-10-17T21:16:12.028Z,18.36
2022-10-17T21:18:39.226Z,18.34
2022-10-17T21:21:13.658Z,18.33
2022-10-17T21:23:41.396Z,18.32
2022-10-17T21:26:09.620Z,18.29
2022-10-17T21:28:37.067Z,18.28
2022-10-17T21:31:17.201Z,18.28
2022-10-17T21:33:46.596Z,18.29
2022-10-17T21:36:13.969Z,18.31
2022-10-17T21:38:40.896Z,18.30
2022-10-17T21:41:09.020Z,18.30
2022-10-17T21:43:36.519Z,18.27
2022-10-17T21:46:09.029Z,18.26
2022-10-17T21:48:35.942Z,18.25
2022-10-17T21:51:06.148Z,18.22
2022-10-17T21:53:33.199Z,18.21
2022-10-17T21:56:01.185Z,18.20
2022-10-17T21:58:28.516Z,18.20
2022-10-17T22:01:06.249Z,18.19
2022-10-17T22:03:34.710Z,18.19
2022-10-17T22:06:12.826Z,18.18
2022-10-17T22:08:49.416Z,18.14
2022-10-17T22:11:19.341Z,18.13
2022-10-17T22:13:46.249Z,18.12
2022-10-17T22:16:15.161Z,18.11
2022-10-17T22:18:42.355Z,18.09
2022-10-17T22:21:13.425Z,18.09
2022-10-17T22:23:41.926Z,18.07
2022-10-17T22:26:09.225Z,18.05
2022-10-17T22:28:36.269Z,18.05
2022-10-17T22:31:02.776Z,18.05
2022-10-17T22:33:31.661Z,18.05
2022-10-17T22:35:58.167Z,18.04
2022-10-17T22:38:24.624Z,18.05
2022-10-17T22:40:51.084Z,18.04
2022-10-17T22:43:17.484Z,18.03
2022-10-17T22:45:51.942Z,18.03
2022-10-17T22:48:18.307Z,17.99
2022-10-17T22:50:45.706Z,17.99
2022-10-17T22:53:12.257Z,17.98
2022-10-17T22:55:38.676Z,17.98
2022-10-17T22:58:05.104Z,17.98
2022-10-17T23:00:31.542Z,17.97
2022-10-17T23:02:58.210Z,17.97
2022-10-17T23:05:24.638Z,17.98
2022-10-17T23:07:51.082Z,17.99
2022-10-17T23:10:17.488Z,17.99
2022-10-17T23:12:43.884Z,17.99
2022-10-17T23:15:10.496Z,17.98
2022-10-17T23:17:36.910Z,17.95
2022-10-17T23:20:03.737Z,17.93
2022-10-17T23:22:30.346Z,17.92
2022-10-17T23:24:56.941Z,17.91
2022-10-17T23:27:23.356Z,17.92
2022-10-17T23:29:49.808Z,17.91
2022-10-17T23:32:16.182Z,17.93
2022-10-17T23:34:42.556Z,17.92
2022-10-17T23:37:10.416Z,17.93
2022-10-17T23:39:36.821Z,17.93
2022-10-17T23:42:03.286Z,17.94
2022-10-17T23:44:29.693Z,17.94
2022-10-17T23:46:56.163Z,17.95
2022-10-17T23:49:22.626Z,17.93
2022-10-17T23:51:48.978Z,17.91
2022-10-17T23:54:15.383Z,17.88
2022-10-17T23:56:41.790Z,17.86
2022-10-17T23:59:08.912Z,17.84
